Time;durP1;ratioP1;P1;durP2;ratioP2;P2;SDS_P1;SDS_P2;PMS_P1;PMS_P2;Temp;Humidity;BMP_temperature;BMP_pressure;BME280_temperature;BME280_humidity;BME280_pressure;Samples;Min_cycle;Max_cycle;Signal;HPM_P1;HPM_P2
2021/06/13 00:01:30;;;;;;;18.35;5.03;;;15.60;90.40;;;;;;4990475;28;20129;-74
2021/06/13 00:03:56;;;;;;;12.20;4.22;;;15.50;90.60;;;;;;4991267;28;20035;-74
2021/06/13 00:06:21;;;;;;;12.38;4.80;;;15.40;90.70;;;;;;4991429;28;20073;-74
2021/06/13 00:08:47;;;;;;;19.75;4.85;;;15.30;91.10;;;;;;4992897;28;20445;-74
2021/06/13 00:11:13;;;;;;;17.33;4.68;;;15.20;91.00;;;;;;4991407;28;20058;-74
2021/06/13 00:13:40;;;;;;;15.50;4.65;;;15.10;91.20;;;;;;4990062;28;20034;-73
2021/06/13 00:16:06;;;;;;;14.32;4.40;;;15.00;91.40;;;;;;4991097;28;20081;-74
2021/06/13 00:18:33;;;;;;;18.73;4.25;;;15.10;91.40;;;;;;4991265;28;20033;-74
2021/06/13 00:20:59;;;;;;;16.73;3.78;;;15.00;91.60;;;;;;4990572;28;20038;-75
2021/06/13 00:23:25;;;;;;;21.55;3.95;;;15.00;91.50;;;;;;4973342;28;20031;-73
2021/06/13 00:25:51;;;;;;;16.33;4.75;;;15.00;91.60;;;;;;5002886;28;20056;-72
2021/06/13 00:28:16;;;;;;;13.30;4.70;;;15.00;91.60;;;;;;4991206;28;20437;-73
2021/06/13 00:30:42;;;;;;;23.15;5.07;;;15.10;91.50;;;;;;4991201;28;20113;-75
2021/06/13 00:33:08;;;;;;;16.60;4.65;;;15.00;91.70;;;;;;4990171;28;20597;-74
2021/06/13 00:35:34;;;;;;;14.82;4.20;;;15.00;91.90;;;;;;4992557;28;20018;-74
2021/06/13 00:38:00;;;;;;;21.98;4.53;;;14.90;92.10;;;;;;4990685;28;20034;-74
2021/06/13 00:40:27;;;;;;;19.63;5.13;;;14.80;92.20;;;;;;4990667;28;20112;-75
2021/06/13 00:42:54;;;;;;;20.83;4.53;;;15.00;92.20;;;;;;4989628;28;20048;-73
2021/06/13 00:45:20;;;;;;;14.52;3.78;;;15.00;92.10;;;;;;4990981;28;20081;-75
2021/06/13 00:47:47;;;;;;;18.80;4.93;;;15.10;92.10;;;;;;4992555;28;20114;-74
2021/06/13 00:50:21;;;;;;;13.77;4.70;;;15.00;92.30;;;;;;4990678;28;20048;-75
2021/06/13 00:52:47;;;;;;;14.38;4.40;;;14.90;92.50;;;;;;4975956;28;20049;-74
2021/06/13 00:55:14;;;;;;;13.88;3.60;;;15.00;92.30;;;;;;4982065;28;20034;-75
2021/06/13 00:57:39;;;;;;;12.38;4.68;;;15.00;92.30;;;;;;4990882;28;20062;-75
2021/06/13 01:00:06;;;;;;;16.67;4.68;;;14.80;92.60;;;;;;4990983;28;20180;-73
2021/06/13 01:02:33;;;;;;;14.25;4.10;;;14.70;93.00;;;;;;4991377;28;20042;-74
2021/06/13 01:04:58;;;;;;;14.68;4.60;;;14.70;93.00;;;;;;4990920;28;20054;-74
2021/06/13 01:07:35;;;;;;;15.38;4.45;;;14.70;93.00;;;;;;4991039;28;20046;-74
2021/06/13 01:10:34;;;;;;;18.27;4.60;;;14.80;93.00;;;;;;4990655;28;20062;-74
2021/06/13 01:13:31;;;;;;;16.38;4.15;;;14.90;92.90;;;;;;4990326;28;20722;-74
2021/06/13 01:16:09;;;;;;;17.38;4.38;;;14.80;93.00;;;;;;4983592;28;20053;-74
2021/06/13 01:19:01;;;;;;;11.45;4.80;;;14.70;93.00;;;;;;4976775;28;20120;-74
2021/06/13 01:21:32;;;;;;;12.80;4.63;;;14.50;93.40;;;;;;4990070;28;20356;-75
2021/06/13 01:24:18;;;;;;;19.75;4.57;;;14.40;93.70;;;;;;4989647;28;20023;-75
2021/06/13 01:26:55;;;;;;;21.67;4.10;;;14.40;93.80;;;;;;4992819;28;20069;-74
2021/06/13 01:29:33;;;;;;;14.95;3.95;;;14.50;93.70;;;;;;4994688;28;20453;-75
2021/06/13 01:32:01;;;;;;;;;;;14.60;93.50;;;;;;4994339;28;20076;-75
2021/06/13 01:34:43;;;;;;;12.48;4.30;;;14.50;93.60;;;;;;4994348;28;19939;-73
2021/06/13 01:37:15;;;;;;;19.10;4.80;;;14.50;93.80;;;;;;5013529;28;20089;-73
2021/06/13 01:39:43;;;;;;;17.73;4.18;;;14.40;94.00;;;;;;5013581;28;20046;-73
2021/06/13 01:42:10;;;;;;;13.97;3.83;;;14.40;93.90;;;;;;5013930;28;20391;-73
2021/06/13 01:44:39;;;;;;;11.40;4.27;;;14.50;93.90;;;;;;5015033;28;20367;-74
2021/06/13 01:47:07;;;;;;;25.65;6.10;;;14.50;93.70;;;;;;5013456;28;20291;-74
2021/06/13 01:49:34;;;;;;;17.23;4.45;;;14.50;93.90;;;;;;5013567;28;20125;-74
2021/06/13 01:52:00;;;;;;;15.90;4.10;;;14.50;93.90;;;;;;5013572;28;20061;-74
2021/06/13 01:54:29;;;;;;;21.65;4.88;;;14.40;94.10;;;;;;5013874;28;20038;-73
2021/06/13 01:56:56;;;;;;;11.05;4.20;;;14.30;94.30;;;;;;5013580;28;20026;-75
2021/06/13 01:59:24;;;;;;;12.90;4.28;;;14.40;94.20;;;;;;5015087;28;20436;-74
2021/06/13 02:01:51;;;;;;;18.17;4.63;;;14.40;94.20;;;;;;5013580;28;20038;-75
2021/06/13 02:04:17;;;;;;;16.23;4.53;;;14.40;94.10;;;;;;5013211;28;20038;-73
2021/06/13 02:06:57;;;;;;;17.55;4.15;;;14.40;94.20;;;;;;5013229;28;20045;-74
2021/06/13 02:09:23;;;;;;;16.92;4.25;;;14.40;94.20;;;;;;5012057;28;20116;-74
2021/06/13 02:11:50;;;;;;;14.75;4.35;;;14.40;94.30;;;;;;5013755;28;20293;-73
2021/06/13 02:14:20;;;;;;;23.38;4.90;;;14.40;94.30;;;;;;5012004;28;20056;-73
2021/06/13 02:16:46;;;;;;;12.18;3.55;;;14.50;94.20;;;;;;5011730;28;20403;-75
2021/06/13 02:19:15;;;;;;;12.57;4.15;;;14.40;94.20;;;;;;5012723;28;20038;-73
2021/06/13 02:21:43;;;;;;;16.10;4.10;;;14.40;94.30;;;;;;5011687;28;20376;-74
2021/06/13 02:24:10;;;;;;;17.63;4.82;;;14.40;94.50;;;;;;5013139;28;20156;-74
2021/06/13 02:26:39;;;;;;;21.40;5.10;;;14.40;94.40;;;;;;5014494;28;20053;-74
2021/06/13 02:29:06;;;;;;;14.10;4.05;;;14.50;94.50;;;;;;5012656;28;20042;-72
2021/06/13 02:31:32;;;;;;;18.80;4.15;;;14.40;94.50;;;;;;5011736;28;20040;-72
2021/06/13 02:34:00;;;;;;;15.25;3.92;;;14.40;94.60;;;;;;5011682;28;20034;-73
2021/06/13 02:36:27;;;;;;;12.20;4.65;;;14.40;94.40;;;;;;5012829;28;20357;-74
2021/06/13 02:38:56;;;;;;;12.25;4.05;;;14.40;94.50;;;;;;5013013;28;20426;-74
2021/06/13 02:41:22;;;;;;;16.55;4.47;;;14.40;94.70;;;;;;5012908;28;20498;-73
2021/06/13 02:43:48;;;;;;;15.77;4.20;;;14.30;94.80;;;;;;5011206;28;20141;-74
2021/06/13 02:46:14;;;;;;;24.05;5.22;;;14.30;94.70;;;;;;5012427;28;20079;-73
2021/06/13 02:48:40;;;;;;;10.07;3.75;;;14.30;94.70;;;;;;5011179;28;20471;-73
2021/06/13 02:51:06;;;;;;;16.20;4.22;;;14.20;94.70;;;;;;5012455;28;20026;-74
2021/06/13 02:53:44;;;;;;;11.43;4.53;;;14.20;94.80;;;;;;5013806;28;20037;-73
2021/06/13 02:56:29;;;;;;;16.58;4.60;;;14.10;94.90;;;;;;5012287;28;20063;-75
2021/06/13 02:59:24;;;;;;;16.67;4.15;;;14.10;94.90;;;;;;5012374;28;20459;-75
2021/06/13 03:01:52;;;;;;;13.02;4.05;;;14.20;94.90;;;;;;5001394;28;20034;-75
2021/06/13 03:04:19;;;;;;;12.30;3.35;;;14.20;94.80;;;;;;5012318;28;20100;-75
2021/06/13 03:06:52;;;;;;;17.65;4.50;;;14.20;94.70;;;;;;5012277;28;20040;-74
2021/06/13 03:09:18;;;;;;;10.98;3.63;;;14.10;94.80;;;;;;5012144;28;20123;-73
2021/06/13 03:11:45;;;;;;;24.38;4.75;;;14.00;94.90;;;;;;5013949;28;20113;-74
2021/06/13 03:14:12;;;;;;;16.42;4.57;;;14.10;94.90;;;;;;5011932;28;20046;-74
2021/06/13 03:16:39;;;;;;;18.15;4.90;;;14.00;95.00;;;;;;5012191;28;20043;-74
2021/06/13 03:19:07;;;;;;;13.75;4.20;;;13.90;95.00;;;;;;5012011;28;20088;-73
2021/06/13 03:21:33;;;;;;;9.73;3.85;;;13.90;95.00;;;;;;5012017;28;20040;-73
2021/06/13 03:23:59;;;;;;;18.00;4.78;;;13.90;95.00;;;;;;5011749;28;20720;-74
2021/06/13 03:26:27;;;;;;;21.88;4.60;;;13.90;95.10;;;;;;5013651;28;20022;-74
2021/06/13 03:28:57;;;;;;;13.35;4.38;;;13.90;95.10;;;;;;5011964;28;20046;-74
2021/06/13 03:31:23;;;;;;;17.65;4.43;;;13.90;95.10;;;;;;5011508;28;20053;-72
2021/06/13 03:33:52;;;;;;;13.07;4.30;;;13.80;95.20;;;;;;5011845;28;20137;-73
2021/06/13 03:36:19;;;;;;;17.88;4.13;;;13.80;95.20;;;;;;5010898;28;20360;-74
2021/06/13 03:38:47;;;;;;;14.70;4.70;;;13.90;95.30;;;;;;5013037;28;20021;-73
2021/06/13 03:41:16;;;;;;;17.88;4.53;;;13.80;95.30;;;;;;5011270;28;20049;-74
2021/06/13 03:43:43;;;;;;;18.33;4.72;;;13.80;95.20;;;;;;5011268;28;20403;-74
2021/06/13 03:46:09;;;;;;;13.07;4.72;;;13.80;95.20;;;;;;5011401;28;20046;-74
2021/06/13 03:48:35;;;;;;;15.63;4.78;;;13.60;95.60;;;;;;5011318;28;20038;-73
2021/06/13 03:51:03;;;;;;;12.23;3.80;;;13.70;95.60;;;;;;5009838;28;20040;-74
2021/06/13 03:53:29;;;;;;;14.13;4.37;;;13.80;95.50;;;;;;5013000;28;20531;-74
2021/06/13 03:55:58;;;;;;;16.58;4.97;;;13.70;95.40;;;;;;5011366;28;20358;-74
2021/06/13 03:58:25;;;;;;;14.88;4.78;;;13.70;95.60;;;;;;5011049;28;20512;-74
2021/06/13 04:00:53;;;;;;;17.58;4.45;;;13.70;95.50;;;;;;5011008;28;20045;-74
2021/06/13 04:03:20;;;;;;;17.83;4.65;;;13.80;95.50;;;;;;5010707;28;20452;-74
2021/06/13 04:05:47;;;;;;;20.40;4.22;;;13.80;95.50;;;;;;5011414;28;20448;-74
2021/06/13 04:08:16;;;;;;;17.75;5.53;;;13.80;95.50;;;;;;5009909;28;20080;-74
2021/06/13 04:10:47;;;;;;;17.90;4.30;;;13.70;95.60;;;;;;5011150;28;20403;-74
2021/06/13 04:13:14;;;;;;;18.00;4.50;;;13.70;95.70;;;;;;5010683;28;20038;-73
2021/06/13 04:15:40;;;;;;;13.90;4.90;;;13.60;95.70;;;;;;5009829;28;20096;-74
2021/06/13 04:18:07;;;;;;;13.32;4.22;;;13.70;95.70;;;;;;5011100;28;20037;-75
2021/06/13 04:20:34;;;;;;;16.48;4.85;;;13.60;96.00;;;;;;5012524;28;20021;-74
2021/06/13 04:23:01;;;;;;;13.57;4.68;;;13.70;95.80;;;;;;5011166;28;20041;-74
2021/06/13 04:25:27;;;;;;;19.02;5.72;;;13.80;95.70;;;;;;5011092;28;20060;-74
2021/06/13 04:27:54;;;;;;;18.35;5.53;;;13.80;95.90;;;;;;5010788;28;20042;-74
2021/06/13 04:30:20;;;;;;;15.55;5.38;;;13.80;95.60;;;;;;5010952;28;20068;-73
2021/06/13 04:32:45;;;;;;;15.90;5.00;;;13.90;95.70;;;;;;5012580;28;20050;-73
2021/06/13 04:35:11;;;;;;;14.90;4.55;;;13.90;95.70;;;;;;5010813;28;20077;-73
2021/06/13 04:37:37;;;;;;;16.05;3.97;;;14.00;95.50;;;;;;5010715;28;20388;-73
2021/06/13 04:40:04;;;;;;;14.43;4.68;;;14.10;95.40;;;;;;5009695;28;20072;-74
2021/06/13 04:42:30;;;;;;;18.48;5.38;;;14.10;95.40;;;;;;5010543;28;20494;-74
2021/06/13 04:44:55;;;;;;;10.43;4.32;;;14.10;95.40;;;;;;5010614;28;20038;-74
2021/06/13 04:47:21;;;;;;;18.25;5.25;;;14.10;95.30;;;;;;5012116;28;20076;-75
2021/06/13 04:49:49;;;;;;;17.40;4.22;;;14.20;95.30;;;;;;5010820;28;20490;-74
2021/06/13 04:52:18;;;;;;;20.20;4.65;;;14.10;95.40;;;;;;5010485;28;20475;-74
2021/06/13 04:54:56;;;;;;;;;;;14.20;95.40;;;;;;5010811;28;20046;-74
2021/06/13 04:57:39;;;;;;;16.98;5.25;;;14.30;95.30;;;;;;5009592;28;20278;-72
2021/06/13 05:00:06;;;;;;;14.40;5.07;;;14.20;95.40;;;;;;5009647;28;20026;-74
2021/06/13 05:02:32;;;;;;;11.63;4.57;;;14.30;95.20;;;;;;5012518;28;20095;-75
2021/06/13 05:04:57;;;;;;;14.20;5.03;;;14.10;95.20;;;;;;5014345;28;20111;-74
2021/06/13 05:07:23;;;;;;;14.05;4.30;;;14.20;95.10;;;;;;5014392;28;20532;-74
2021/06/13 05:09:49;;;;;;;17.95;4.38;;;14.30;94.90;;;;;;5029659;28;20041;-75
2021/06/13 05:12:15;;;;;;;16.98;3.75;;;14.30;94.80;;;;;;5014290;28;20052;-73
2021/06/13 05:14:41;;;;;;;21.80;4.57;;;14.50;94.80;;;;;;5015684;28;20116;-75
2021/06/13 05:17:06;;;;;;;15.75;4.65;;;14.50;94.70;;;;;;5014258;28;20034;-74
2021/06/13 05:19:32;;;;;;;16.65;4.85;;;14.40;94.70;;;;;;5014202;28;20183;-73
2021/06/13 05:21:58;;;;;;;19.52;4.05;;;14.50;94.70;;;;;;5013361;28;20042;-73
2021/06/13 05:24:24;;;;;;;14.65;4.43;;;14.60;94.40;;;;;;5014220;28;20042;-72
2021/06/13 05:26:49;;;;;;;13.38;4.40;;;14.60;94.40;;;;;;5015639;28;20403;-73
2021/06/13 05:29:15;;;;;;;10.98;4.57;;;14.60;94.40;;;;;;5013718;28;20066;-73
2021/06/13 05:31:41;;;;;;;9.65;3.55;;;14.60;94.30;;;;;;5014270;28;20042;-74
2021/06/13 05:34:06;;;;;;;12.90;4.65;;;14.70;94.30;;;;;;5013413;28;20436;-74
2021/06/13 05:36:32;;;;;;;12.70;3.78;;;14.70;94.10;;;;;;5013465;28;20124;-73
2021/06/13 05:38:57;;;;;;;16.67;5.20;;;14.80;94.40;;;;;;5013816;28;20452;-74
2021/06/13 05:41:23;;;;;;;13.68;4.35;;;14.80;94.00;;;;;;5015351;28;20026;-74
2021/06/13 05:43:50;;;;;;;17.02;4.95;;;14.80;94.20;;;;;;5013557;28;21832;-75
2021/06/13 05:46:19;;;;;;;20.98;4.43;;;14.90;94.10;;;;;;5029066;28;20100;-74
2021/06/13 05:48:44;;;;;;;18.80;4.35;;;14.90;93.60;;;;;;5013575;28;20049;-75
2021/06/13 05:51:10;;;;;;;13.15;4.45;;;15.10;93.60;;;;;;5013625;28;20026;-74
2021/06/13 05:53:36;;;;;;;14.40;3.80;;;15.30;93.50;;;;;;5015322;28;20084;-74
2021/06/13 05:56:04;;;;;;;14.32;4.13;;;15.40;93.20;;;;;;5013520;28;20042;-73
2021/06/13 05:58:29;;;;;;;10.38;3.60;;;15.60;93.00;;;;;;5013404;28;20045;-75
2021/06/13 06:00:55;;;;;;;19.40;4.30;;;15.40;92.90;;;;;;5013403;28;20113;-74
2021/06/13 06:03:22;;;;;;;16.23;4.53;;;15.50;92.90;;;;;;5013068;28;20380;-74
2021/06/13 06:05:50;;;;;;;12.60;4.45;;;15.60;92.70;;;;;;5014769;28;20033;-74
2021/06/13 06:08:17;;;;;;;;;;;15.40;92.60;;;;;;5013708;28;20037;-76
2021/06/13 06:10:43;;;;;;;18.65;4.07;;;15.40;92.70;;;;;;5013561;28;19916;-74
2021/06/13 06:13:08;;;;;;;11.55;4.35;;;15.50;92.70;;;;;;5011430;28;20091;-74
2021/06/13 06:15:36;;;;;;;13.68;3.95;;;15.60;92.50;;;;;;5013425;28;20124;-74
2021/06/13 06:18:02;;;;;;;14.55;4.13;;;15.70;92.50;;;;;;5013077;28;20026;-74
2021/06/13 06:20:29;;;;;;;10.77;3.78;;;15.90;92.30;;;;;;5014735;28;20036;-74
2021/06/13 06:22:55;;;;;;;12.03;3.57;;;16.10;92.20;;;;;;5013419;28;20042;-74
2021/06/13 06:25:22;;;;;;;13.82;3.75;;;16.20;92.00;;;;;;5012938;28;20037;-74
2021/06/13 06:27:50;;;;;;;13.85;4.15;;;16.20;91.70;;;;;;5012814;28;20056;-74
2021/06/13 06:30:16;;;;;;;17.55;4.88;;;16.00;91.50;;;;;;5012627;28;20432;-75
2021/06/13 06:32:42;;;;;;;11.57;3.42;;;15.90;91.80;;;;;;5014279;28;20026;-76
2021/06/13 06:35:10;;;;;;;13.82;4.47;;;16.00;91.70;;;;;;5012655;28;20038;-75
2021/06/13 06:37:38;;;;;;;11.90;3.78;;;16.10;91.50;;;;;;5011775;28;20049;-76
2021/06/13 06:40:04;;;;;;;;;;;15.90;91.50;;;;;;5013276;28;20038;-74
2021/06/13 06:42:31;;;;;;;10.38;3.90;;;16.10;91.50;;;;;;5007620;28;20342;-75
2021/06/13 06:44:57;;;;;;;10.15;3.60;;;16.10;91.60;;;;;;4993318;28;20073;-73
2021/06/13 06:47:23;;;;;;;14.40;3.22;;;16.30;91.60;;;;;;5014113;28;20436;-74
2021/06/13 06:49:48;;;;;;;17.38;4.00;;;16.30;91.30;;;;;;5011636;28;20038;-75
2021/06/13 06:52:14;;;;;;;11.57;3.53;;;16.20;91.30;;;;;;5011717;28;20459;-72
2021/06/13 06:54:40;;;;;;;14.90;3.47;;;16.50;91.20;;;;;;5012505;28;20037;-73
2021/06/13 06:57:07;;;;;;;18.00;4.07;;;16.70;90.80;;;;;;5012196;28;20037;-72
2021/06/13 06:59:32;;;;;;;11.40;3.58;;;16.60;90.80;;;;;;5013767;28;20107;-73
2021/06/13 07:01:58;;;;;;;11.95;3.58;;;16.70;90.50;;;;;;5012312;28;20072;-72
2021/06/13 07:04:23;;;;;;;12.52;3.28;;;16.50;90.40;;;;;;5011788;28;20034;-72
2021/06/13 07:06:49;;;;;;;13.45;3.50;;;16.70;90.40;;;;;;5012348;28;20435;-73
2021/06/13 07:09:15;;;;;;;15.52;3.85;;;16.70;90.10;;;;;;5010931;28;20060;-72
2021/06/13 07:11:42;;;;;;;13.57;4.47;;;16.80;90.30;;;;;;5013545;28;20044;-72
2021/06/13 07:14:08;;;;;;;10.43;4.00;;;16.90;90.40;;;;;;5008823;28;20117;-73
2021/06/13 07:16:33;;;;;;;9.93;3.35;;;16.90;90.10;;;;;;5012211;28;20037;-72
2021/06/13 07:18:59;;;;;;;14.63;3.78;;;16.90;90.00;;;;;;5011820;28;20037;-74
2021/06/13 07:21:24;;;;;;;11.82;3.53;;;17.00;89.90;;;;;;5011950;28;20041;-74
2021/06/13 07:23:50;;;;;;;8.90;3.40;;;17.10;89.40;;;;;;5013696;28;20030;-72
2021/06/13 07:26:16;;;;;;;13.90;3.50;;;17.20;88.70;;;;;;5011464;28;20042;-74
2021/06/13 07:28:41;;;;;;;14.80;4.13;;;17.20;88.10;;;;;;5011919;28;20038;-74
2021/06/13 07:31:07;;;;;;;10.90;2.85;;;17.30;87.10;;;;;;5011889;28;20097;-73
2021/06/13 07:33:32;;;;;;;10.55;3.17;;;17.30;86.90;;;;;;5011956;28;20038;-73
2021/06/13 07:35:58;;;;;;;17.25;3.22;;;17.30;85.70;;;;;;5011975;28;20032;-73
2021/06/13 07:38:24;;;;;;;11.18;2.50;;;17.40;85.80;;;;;;5012626;28;20029;-73
2021/06/13 07:40:50;;;;;;;10.93;2.97;;;17.60;84.00;;;;;;5011790;28;20048;-74
2021/06/13 07:43:16;;;;;;;12.20;2.88;;;17.60;83.40;;;;;;5011361;28;20038;-73
2021/06/13 07:45:42;;;;;;;13.35;3.70;;;17.40;82.60;;;;;;5011242;28;20119;-72
2021/06/13 07:48:09;;;;;;;9.98;2.72;;;17.60;83.10;;;;;;5011792;28;20022;-74
2021/06/13 07:50:35;;;;;;;12.45;3.38;;;18.00;82.80;;;;;;5013512;28;20026;-72
2021/06/13 07:53:02;;;;;;;10.15;2.60;;;17.90;81.30;;;;;;5011740;28;20522;-73
2021/06/13 07:55:28;;;;;;;10.80;2.78;;;18.20;81.10;;;;;;5011573;28;20468;-73
2021/06/13 07:57:54;;;;;;;10.82;2.78;;;17.80;80.10;;;;;;5010347;28;20041;-74
2021/06/13 08:00:23;;;;;;;11.40;2.97;;;18.20;79.80;;;;;;5010723;28;20041;-74
2021/06/13 08:02:48;;;;;;;13.10;3.33;;;18.80;78.90;;;;;;5013102;28;20017;-73
2021/06/13 08:05:17;;;;;;;11.35;3.03;;;19.40;78.70;;;;;;5011584;28;20045;-72
2021/06/13 08:07:42;;;;;;;10.68;3.47;;;19.70;76.60;;;;;;5011268;28;20125;-73
2021/06/13 08:10:09;;;;;;;11.15;3.60;;;20.40;75.90;;;;;;5010159;28;20113;-71
2021/06/13 08:12:35;;;;;;;11.47;3.20;;;20.70;73.90;;;;;;5010707;28;20033;-74
2021/06/13 08:15:01;;;;;;;8.98;2.80;;;20.80;73.30;;;;;;5011278;28;20109;-71
2021/06/13 08:17:27;;;;;;;7.68;2.70;;;21.00;72.70;;;;;;5011952;28;20025;-73
2021/06/13 08:19:52;;;;;;;6.80;2.63;;;21.20;70.90;;;;;;5011103;28;20049;-71
2021/06/13 08:22:18;;;;;;;12.18;4.43;;;21.50;69.00;;;;;;5006644;28;20234;-74
2021/06/13 08:24:44;;;;;;;11.77;3.25;;;21.50;68.10;;;;;;4998292;28;20476;-72
2021/06/13 08:27:09;;;;;;;9.55;3.42;;;21.80;69.00;;;;;;5010690;28;20112;-71
2021/06/13 08:29:35;;;;;;;11.00;3.15;;;22.00;67.70;;;;;;5011446;28;20045;-71
2021/06/13 08:32:01;;;;;;;7.60;2.72;;;21.60;66.20;;;;;;5011304;28;20069;-72
2021/06/13 08:34:27;;;;;;;15.38;3.22;;;21.80;66.90;;;;;;5011371;28;20033;-71
2021/06/13 08:36:54;;;;;;;6.85;2.45;;;22.00;65.60;;;;;;5010977;28;20034;-71
2021/06/13 08:39:19;;;;;;;8.68;2.97;;;21.60;65.60;;;;;;5011122;28;20452;-71
2021/06/13 08:41:45;;;;;;;7.20;2.78;;;21.30;65.90;;;;;;5012397;28;20026;-72
2021/06/13 08:44:11;;;;;;;9.45;2.70;;;21.20;66.20;;;;;;5009062;28;20387;-72
2021/06/13 08:46:37;;;;;;;12.50;3.58;;;21.70;69.10;;;;;;5010816;28;20037;-71
2021/06/13 08:49:04;;;;;;;7.30;3.05;;;22.20;64.80;;;;;;5009421;28;20058;-72
2021/06/13 08:51:31;;;;;;;8.77;3.17;;;22.90;63.30;;;;;;5010908;28;20073;-71
2021/06/13 08:53:57;;;;;;;9.43;2.67;;;23.30;61.20;;;;;;5010727;28;20037;-76
2021/06/13 08:56:23;;;;;;;8.02;2.70;;;23.70;61.10;;;;;;5012450;28;20025;-75
2021/06/13 08:58:50;;;;;;;12.27;4.18;;;24.00;60.00;;;;;;5010659;28;20042;-76
2021/06/13 09:01:16;;;;;;;14.43;3.80;;;24.30;58.40;;;;;;5010795;28;20042;-77
2021/06/13 09:03:43;;;;;;;4.93;2.45;;;24.40;58.40;;;;;;5010806;28;20091;-75
2021/06/13 09:06:09;;;;;;;7.70;2.85;;;24.30;57.90;;;;;;5010207;28;20072;-79
2021/06/13 09:08:40;;;;;;;11.63;3.78;;;23.60;59.40;;;;;;5011401;28;20034;-74
2021/06/13 09:11:08;;;;;;;12.57;3.25;;;23.10;57.70;;;;;;5010513;28;20030;-84
2021/06/13 09:13:34;;;;;;;9.75;2.80;;;23.00;57.50;;;;;;5011024;28;20042;-79
2021/06/13 09:16:02;;;;;;;8.55;2.75;;;22.70;56.20;;;;;;5010474;28;20124;-82
2021/06/13 09:18:39;;;;;;;8.18;2.90;;;22.40;57.00;;;;;;5011293;28;20022;-72
2021/06/13 09:21:13;;;;;;;6.43;3.00;;;22.70;56.10;;;;;;5010402;28;20026;-81
2021/06/13 09:23:40;;;;;;;10.45;3.42;;;22.30;56.70;;;;;;5011231;28;20037;-79
2021/06/13 09:26:12;;;;;;;9.07;3.05;;;22.60;57.20;;;;;;5009382;28;20651;-79
2021/06/13 09:28:42;;;;;;;11.05;3.03;;;22.60;57.60;;;;;;5010618;28;20091;-81
2021/06/13 09:31:23;;;;;;;8.38;2.45;;;22.50;57.50;;;;;;5010174;28;20050;-82
2021/06/13 09:33:51;;;;;;;7.07;2.60;;;22.50;57.20;;;;;;5009239;28;20026;-82
2021/06/13 09:36:19;;;;;;;;;;;22.30;57.50;;;;;;5010242;28;20030;-80
2021/06/13 09:38:46;;;;;;;5.80;2.70;;;22.60;57.70;;;;;;5027529;28;20435;-86
2021/06/13 09:41:17;;;;;;;7.43;2.38;;;22.90;56.60;;;;;;5010318;28;20052;-79
2021/06/13 09:43:49;;;;;;;8.95;3.63;;;22.90;56.10;;;;;;5009349;28;20041;-83
2021/06/13 09:46:24;;;;;;;13.70;3.13;;;22.60;55.60;;;;;;5010673;28;20475;-81
2021/06/13 09:48:53;;;;;;;5.47;2.22;;;22.50;56.70;;;;;;5014742;28;20069;-86
2021/06/13 09:51:21;;;;;;;9.20;2.95;;;22.50;56.80;;;;;;5013328;28;20369;-78
2021/06/13 09:53:49;;;;;;;;;;;22.50;57.30;;;;;;5016105;28;20030;-76
2021/06/13 09:56:25;;;;;;;;;;;22.90;57.20;;;;;;5013818;28;19913;-71
2021/06/13 09:59:02;;;;;;;6.90;2.63;;;23.20;57.10;;;;;;5013912;28;19941;-73
2021/06/13 10:01:40;;;;;;;7.97;2.55;;;23.30;55.70;;;;;;5012781;28;20034;-72
2021/06/13 10:04:19;;;;;;;7.50;3.50;;;23.00;55.40;;;;;;5013863;28;20041;-70
2021/06/13 10:06:47;;;;;;;17.02;4.57;;;22.20;55.80;;;;;;5013553;28;20026;-71
2021/06/13 10:09:13;;;;;;;14.38;4.20;;;21.80;56.40;;;;;;5012109;28;20123;-70
2021/06/13 10:11:39;;;;;;;6.80;2.78;;;22.20;57.20;;;;;;5014871;28;20029;-78
2021/06/13 10:14:10;;;;;;;6.97;2.95;;;22.00;56.60;;;;;;5013872;28;20358;-80
2021/06/13 10:16:45;;;;;;;7.97;3.15;;;22.50;56.70;;;;;;5013861;28;20033;-73
2021/06/13 10:19:17;;;;;;;9.68;2.95;;;23.00;56.20;;;;;;5012982;28;20033;-72
2021/06/13 10:21:55;;;;;;;7.00;2.83;;;23.10;55.30;;;;;;5013096;28;20042;-72
2021/06/13 10:24:24;;;;;;;7.60;2.80;;;23.20;55.50;;;;;;5011940;28;20069;-71
2021/06/13 10:26:53;;;;;;;7.55;2.55;;;23.40;55.20;;;;;;5013452;28;20029;-71
2021/06/13 10:29:20;;;;;;;7.80;3.20;;;23.40;55.00;;;;;;5013378;28;20130;-71
2021/06/13 10:31:49;;;;;;;9.50;3.72;;;23.50;54.40;;;;;;5012134;28;20049;-72
2021/06/13 10:34:16;;;;;;;10.55;4.25;;;23.20;55.20;;;;;;5012792;28;20189;-74
2021/06/13 10:36:42;;;;;;;11.33;3.53;;;23.10;55.50;;;;;;5013075;28;20030;-73
2021/06/13 10:39:13;;;;;;;12.30;3.00;;;23.00;55.20;;;;;;5012823;28;20496;-71
2021/06/13 10:41:40;;;;;;;11.77;2.88;;;22.70;53.60;;;;;;5014396;28;20439;-76
2021/06/13 10:44:12;;;;;;;11.88;3.65;;;23.00;55.20;;;;;;5012522;28;20057;-73
2021/06/13 10:46:49;;;;;;;7.70;3.10;;;23.50;55.10;;;;;;5012144;28;20104;-73
2021/06/13 10:49:41;;;;;;;13.40;4.03;;;23.20;54.50;;;;;;5011617;28;20551;-71
2021/06/13 10:52:11;;;;;;;9.50;3.55;;;22.90;53.80;;;;;;5012619;28;20038;-72
2021/06/13 10:54:53;;;;;;;8.05;3.15;;;22.30;54.10;;;;;;5012441;28;20045;-74
2021/06/13 10:57:19;;;;;;;17.60;8.52;;;22.80;54.30;;;;;;5012447;28;20026;-74
2021/06/13 10:59:46;;;;;;;16.67;5.07;;;23.20;54.00;;;;;;5013956;28;20026;-72
2021/06/13 11:02:23;;;;;;;12.60;3.55;;;23.20;53.70;;;;;;5012748;28;20057;-72
2021/06/13 11:05:03;;;;;;;6.43;2.35;;;23.10;54.00;;;;;;5012370;28;20057;-72
2021/06/13 11:10:10;;;;;;;7.82;3.70;;;23.00;54.20;;;;;;5012258;28;20203;-71
2021/06/13 11:12:48;;;;;;;16.20;3.83;;;23.10;54.60;;;;;;5011857;28;20045;-74
2021/06/13 11:15:36;;;;;;;9.38;2.70;;;23.00;54.30;;;;;;5011205;28;20364;-75
2021/06/13 11:18:07;;;;;;;8.75;3.58;;;23.20;54.80;;;;;;5012120;28;20411;-75
2021/06/13 11:20:35;;;;;;;7.30;3.00;;;23.10;55.10;;;;;;5013984;28;20394;-74
2021/06/13 11:23:06;;;;;;;6.45;2.72;;;23.10;55.00;;;;;;5012346;28;20046;-76
2021/06/13 11:25:37;;;;;;;9.07;2.55;;;23.10;54.90;;;;;;5011616;28;20046;-72
2021/06/13 11:28:25;;;;;;;8.45;2.65;;;23.40;54.40;;;;;;5011005;28;20052;-73
2021/06/13 11:31:08;;;;;;;6.88;2.78;;;23.60;53.60;;;;;;5012166;28;20042;-71
2021/06/13 11:33:43;;;;;;;8.52;2.95;;;23.10;53.90;;;;;;5011638;28;20026;-72
2021/06/13 11:36:15;;;;;;;9.13;3.25;;;22.80;54.50;;;;;;5012124;28;20432;-71
2021/06/13 11:38:44;;;;;;;10.32;3.58;;;22.70;54.90;;;;;;5013934;28;20029;-73
2021/06/13 11:41:22;;;;;;;9.18;2.38;;;22.90;56.60;;;;;;5010465;28;20042;-71
2021/06/13 11:43:48;;;;;;;7.20;3.08;;;23.20;55.00;;;;;;5011385;28;20030;-72
2021/06/13 11:46:28;;;;;;;7.53;3.40;;;22.90;55.00;;;;;;5012033;28;20057;-71
2021/06/13 11:48:54;;;;;;;8.57;2.92;;;23.10;56.10;;;;;;5011528;28;20054;-75
2021/06/13 11:51:20;;;;;;;6.90;2.65;;;23.40;55.30;;;;;;5011987;28;20631;-77
2021/06/13 11:53:58;;;;;;;12.52;3.20;;;23.40;54.70;;;;;;5014207;28;20056;-77
2021/06/13 11:56:35;;;;;;;8.63;2.85;;;23.40;55.10;;;;;;5011857;28;20045;-78
2021/06/13 11:59:19;;;;;;;;;;;23.30;54.60;;;;;;5011300;28;20310;-76
2021/06/13 12:01:56;;;;;;;6.28;2.72;;;23.40;54.30;;;;;;5011406;28;19913;-76
2021/06/13 12:04:23;;;;;;;10.17;2.67;;;23.30;54.80;;;;;;5010279;28;20104;-76
2021/06/13 12:06:50;;;;;;;10.18;3.15;;;23.30;54.50;;;;;;5011332;28;20260;-75
2021/06/13 12:09:18;;;;;;;13.63;3.83;;;23.10;53.80;;;;;;5011285;28;20050;-75
2021/06/13 12:11:55;;;;;;;6.75;2.92;;;23.00;54.60;;;;;;5012293;28;20022;-76
2021/06/13 12:14:24;;;;;;;8.17;2.73;;;23.00;54.70;;;;;;5011777;28;20034;-77
2021/06/13 12:16:55;;;;;;;6.30;2.58;;;22.80;54.60;;;;;;5010976;28;20072;-76
2021/06/13 12:19:39;;;;;;;8.20;3.17;;;22.80;54.70;;;;;;5011395;28;20305;-76
2021/06/13 12:27:49;;;;;;;8.57;3.17;;;22.80;56.00;;;;;;5011043;28;20440;-76
2021/06/13 12:30:18;;;;;;;12.77;2.92;;;22.70;55.30;;;;;;5009127;28;20188;-74
2021/06/13 12:32:56;;;;;;;8.40;3.25;;;22.80;56.20;;;;;;5011119;28;20151;-76
2021/06/13 12:35:28;;;;;;;8.52;2.80;;;22.90;55.40;;;;;;5010811;28;20044;-77
2021/06/13 12:38:00;;;;;;;8.40;3.00;;;22.80;54.30;;;;;;5009115;28;20030;-77
2021/06/13 12:40:27;;;;;;;10.48;2.80;;;22.60;55.30;;;;;;5010753;28;20038;-78
2021/06/13 12:42:52;;;;;;;10.05;3.72;;;22.70;55.80;;;;;;5009504;28;20084;-78
2021/06/13 12:45:20;;;;;;;9.07;2.97;;;22.80;55.90;;;;;;5009282;28;20041;-78
2021/06/13 12:47:48;;;;;;;7.60;2.57;;;23.00;56.00;;;;;;5012492;28;20535;-77
2021/06/13 12:50:22;;;;;;;6.75;3.13;;;23.20;55.40;;;;;;5010895;28;20081;-76
2021/06/13 12:52:52;;;;;;;7.63;2.90;;;23.00;55.60;;;;;;5010968;28;20033;-77
2021/06/13 12:55:19;;;;;;;11.75;3.25;;;23.20;55.10;;;;;;5010694;28;20037;-77
2021/06/13 12:57:49;;;;;;;11.98;3.42;;;23.00;54.00;;;;;;5010531;28;20455;-77